createdAt,value
2023-03-24T00:01:26.025Z,11.34
2023-03-24T00:03:54.350Z,11.35
2023-03-24T00:06:22.144Z,11.36
2023-03-24T00:08:50.529Z,11.36
2023-03-24T00:11:19.065Z,11.34
2023-03-24T00:13:50.760Z,11.33
2023-03-24T00:16:20.190Z,11.32
2023-03-24T00:18:52.373Z,11.31
2023-03-24T00:21:26.297Z,11.28
2023-03-24T00:24:00.906Z,11.26
2023-03-24T00:26:36.826Z,11.24
2023-03-24T00:29:05.517Z,11.25
2023-03-24T00:31:33.871Z,11.25
2023-03-24T00:34:03.131Z,11.25
2023-03-24T00:36:34.320Z,11.25
2023-03-24T00:39:06.051Z,11.25
2023-03-24T00:41:34.537Z,11.26
2023-03-24T00:44:05.547Z,11.26
2023-03-24T00:46:34.667Z,11.25
2023-03-24T00:49:05.394Z,11.24
2023-03-24T00:51:35.821Z,11.23
2023-03-24T00:54:03.480Z,11.22
2023-03-24T00:56:35.139Z,11.22
2023-03-24T00:59:02.735Z,11.19
2023-03-24T01:01:35.865Z,11.16
2023-03-24T01:04:05.452Z,11.15
2023-03-24T01:06:36.711Z,11.13
2023-03-24T01:09:05.396Z,11.11
2023-03-24T01:11:40.745Z,11.10
2023-03-24T01:14:09.229Z,11.08
2023-03-24T01:16:39.164Z,11.06
2023-03-24T01:19:08.747Z,11.06
2023-03-24T01:21:38.361Z,11.04
2023-03-24T01:24:05.689Z,11.02
2023-03-24T01:26:32.835Z,11.00
2023-03-24T01:29:00.213Z,10.99
2023-03-24T01:31:27.491Z,10.98
2023-03-24T01:33:55.419Z,10.97
2023-03-24T01:36:24.361Z,10.96
2023-03-24T01:38:51.625Z,10.96
2023-03-24T01:41:19.214Z,10.97
2023-03-24T01:43:46.683Z,10.98
2023-03-24T01:46:21.376Z,10.97
2023-03-24T01:48:59.520Z,10.96
2023-03-24T01:51:31.690Z,10.96
2023-03-24T01:54:06.873Z,10.93
2023-03-24T01:56:36.629Z,10.91
2023-03-24T01:59:07.687Z,10.90
2023-03-24T02:01:49.494Z,10.88
2023-03-24T02:04:47.944Z,10.87
2023-03-24T02:07:32.886Z,10.86
2023-03-24T02:10:06.468Z,10.85
2023-03-24T02:12:34.332Z,10.85
2023-03-24T02:15:08.400Z,10.85
2023-03-24T02:18:01.651Z,10.84
2023-03-24T02:20:32.237Z,10.84
2023-03-24T02:23:20.382Z,10.83
2023-03-24T02:26:13.453Z,10.83
2023-03-24T02:29:10.685Z,10.83
2023-03-24T02:32:08.770Z,10.83
2023-03-24T02:34:57.813Z,10.83
2023-03-24T02:37:37.419Z,10.82
2023-03-24T02:40:30.897Z,10.82
2023-03-24T02:43:00.330Z,10.82
2023-03-24T02:45:52.714Z,10.83
2023-03-24T02:48:43.038Z,10.83
2023-03-24T02:51:40.031Z,10.83
2023-03-24T02:54:17.403Z,10.84
2023-03-24T02:56:54.047Z,10.84
2023-03-24T02:59:56.822Z,10.85
2023-03-24T03:03:53.380Z,10.86
2023-03-24T03:06:27.846Z,10.85
2023-03-24T03:08:56.410Z,10.85
2023-03-24T03:11:26.823Z,10.85
2023-03-24T03:14:06.585Z,10.85
2023-03-24T03:16:40.726Z,10.86
2023-03-24T03:19:18.287Z,10.86
2023-03-24T03:21:50.515Z,10.87
2023-03-24T03:24:27.555Z,10.88
2023-03-24T03:27:08.566Z,10.90
2023-03-24T03:29:39.809Z,10.92
2023-03-24T03:32:11.337Z,10.94
2023-03-24T03:35:09.922Z,10.95
2023-03-24T03:37:56.914Z,10.98
2023-03-24T03:40:43.260Z,11.03
2023-03-24T03:43:19.956Z,11.05
2023-03-24T03:45:50.724Z,11.07
2023-03-24T03:48:27.763Z,11.10
2023-03-24T03:51:13.606Z,11.12
2023-03-24T03:53:54.893Z,11.14
2023-03-24T03:56:28.769Z,11.16
2023-03-24T03:59:07.303Z,11.18
2023-03-24T04:01:42.143Z,11.19
2023-03-24T04:04:41.142Z,11.20
2023-03-24T04:08:06.212Z,11.22
2023-03-24T04:11:31.521Z,11.23
2023-03-24T04:14:32.274Z,11.23
2023-03-24T04:17:47.653Z,11.24
2023-03-24T04:20:46.792Z,11.25
2023-03-24T04:23:27.547Z,11.26
2023-03-24T04:26:19.106Z,11.27
2023-03-24T04:28:58.467Z,11.29
2023-03-24T04:31:53.603Z,11.29
2023-03-24T04:34:30.163Z,11.30
2023-03-24T04:37:12.764Z,11.32
2023-03-24T04:39:52.025Z,11.32
2023-03-24T04:42:29.056Z,11.34
2023-03-24T04:45:01.088Z,11.34
2023-03-24T04:47:57.245Z,11.36
2023-03-24T04:51:03.855Z,11.37
2023-03-24T04:53:45.968Z,11.38
2023-03-24T04:56:51.132Z,11.39
2023-03-24T04:59:31.559Z,11.39
2023-03-24T05:02:01.544Z,11.39
2023-03-24T05:04:37.636Z,11.39
2023-03-24T05:07:21.594Z,11.41
2023-03-24T05:09:52.518Z,11.42
2023-03-24T05:12:27.920Z,11.43
2023-03-24T05:15:33.533Z,11.44
2023-03-24T05:18:23.439Z,11.44
2023-03-24T05:20:51.961Z,11.45
2023-03-24T05:23:22.233Z,11.48
2023-03-24T05:25:55.000Z,11.48
2023-03-24T05:28:26.536Z,11.51
2023-03-24T05:30:56.983Z,11.53
2023-03-24T05:33:45.063Z,11.54
2023-03-24T05:36:22.858Z,11.55
2023-03-24T05:39:00.226Z,11.55
2023-03-24T05:41:39.023Z,11.58
2023-03-24T05:44:09.022Z,11.62
2023-03-24T05:46:39.197Z,11.64
2023-03-24T05:49:13.576Z,11.68
2023-03-24T05:51:44.811Z,11.74
2023-03-24T05:54:16.526Z,11.81
2023-03-24T05:56:49.484Z,11.88
2023-03-24T05:59:46.702Z,11.97
2023-03-24T06:02:26.975Z,12.07
2023-03-24T06:05:10.710Z,12.22
2023-03-24T06:07:42.735Z,12.36
2023-03-24T06:10:18.542Z,12.54
2023-03-24T06:12:53.009Z,12.85
2023-03-24T06:15:36.247Z,13.33
2023-03-24T06:18:28.266Z,13.79
2023-03-24T06:21:02.938Z,14.03
2023-03-24T06:23:36.240Z,14.14
2023-03-24T06:26:16.949Z,14.18
2023-03-24T06:28:58.329Z,14.21
2023-03-24T06:31:33.131Z,14.26
2023-03-24T06:34:04.629Z,14.34
2023-03-24T06:36:34.953Z,14.40
2023-03-24T06:39:06.083Z,14.36
2023-03-24T06:41:34.982Z,14.28
2023-03-24T06:44:10.812Z,14.18
2023-03-24T06:46:59.958Z,14.12
2023-03-24T06:49:31.251Z,14.02
2023-03-24T06:52:02.450Z,13.97
2023-03-24T06:54:31.158Z,13.92
2023-03-24T06:57:01.331Z,13.87
2023-03-24T06:59:41.406Z,13.83
2023-03-24T07:02:19.940Z,13.76
2023-03-24T07:04:50.870Z,13.72
2023-03-24T07:08:12.802Z,13.70
2023-03-24T07:10:31.305Z,13.65
2023-03-24T07:13:04.019Z,13.64
2023-03-24T07:15:33.132Z,13.64
2023-03-24T07:18:02.359Z,13.62
2023-03-24T07:20:39.892Z,13.61
2023-03-24T07:23:15.391Z,13.61
2023-03-24T07:26:10.915Z,13.60
2023-03-24T07:29:01.480Z,13.58
2023-03-24T07:31:53.589Z,13.57
2023-03-24T07:34:23.441Z,13.55
2023-03-24T07:36:54.978Z,13.52
2023-03-24T07:39:26.973Z,13.50
2023-03-24T07:41:56.393Z,13.48
2023-03-24T07:44:45.119Z,13.46
2023-03-24T07:47:19.802Z,13.45
2023-03-24T07:49:49.475Z,13.46
2023-03-24T07:52:17.940Z,13.47
2023-03-24T07:54:56.724Z,13.50
2023-03-24T07:57:46.766Z,13.54
2023-03-24T08:00:22.694Z,13.58
2023-03-24T08:03:09.931Z,13.61
2023-03-24T08:05:53.213Z,13.61
2023-03-24T08:08:37.598Z,13.61
2023-03-24T08:11:07.807Z,13.60
2023-03-24T08:13:45.519Z,13.58
2023-03-24T08:16:25.071Z,13.60
2023-03-24T08:19:00.904Z,13.62
2023-03-24T08:21:32.435Z,13.68
2023-03-24T08:24:04.129Z,13.71
2023-03-24T08:26:41.492Z,13.74
2023-03-24T08:29:12.828Z,13.81
2023-03-24T08:31:48.874Z,13.88
2023-03-24T08:34:22.529Z,13.97
2023-03-24T08:36:54.453Z,14.04
2023-03-24T08:39:26.102Z,14.12
2023-03-24T08:41:57.875Z,14.17
2023-03-24T08:44:28.194Z,14.22
2023-03-24T08:46:57.910Z,14.29
2023-03-24T08:49:34.668Z,14.37
2023-03-24T08:52:08.224Z,14.45
2023-03-24T08:54:44.907Z,14.57
2023-03-24T08:57:17.725Z,14.73
2023-03-24T08:59:50.877Z,14.87
2023-03-24T09:02:25.962Z,15.01
2023-03-24T09:04:56.455Z,15.10
2023-03-24T09:07:26.365Z,15.13
2023-03-24T09:09:55.105Z,15.16
2023-03-24T09:12:33.169Z,15.20
2023-03-24T09:15:09.731Z,15.20
2023-03-24T09:17:45.197Z,15.28
2023-03-24T09:20:16.048Z,15.41
2023-03-24T09:22:51.897Z,15.55
2023-03-24T09:25:24.694Z,15.71
2023-03-24T09:28:00.152Z,15.86
2023-03-24T09:30:33.329Z,15.97
2023-03-24T09:33:10.390Z,16.08
2023-03-24T09:35:44.853Z,16.20
2023-03-24T09:38:20.347Z,16.33
2023-03-24T09:41:03.832Z,16.43
2023-03-24T09:44:02.829Z,16.49
2023-03-24T09:46:50.369Z,16.60
2023-03-24T09:49:29.042Z,16.71
2023-03-24T09:52:12.379Z,16.80
2023-03-24T09:54:49.676Z,16.87
2023-03-24T09:57:47.838Z,16.98
2023-03-24T10:00:24.071Z,17.04
2023-03-24T10:03:26.199Z,17.15
2023-03-24T10:06:02.443Z,17.30
2023-03-24T10:09:02.260Z,17.44
2023-03-24T10:11:45.492Z,17.61
2023-03-24T10:14:44.699Z,17.76
2023-03-24T10:17:21.047Z,17.99
2023-03-24T10:20:19.539Z,18.22
2023-03-24T10:23:04.703Z,18.45
2023-03-24T10:26:14.260Z,18.59
2023-03-24T10:28:52.771Z,18.79
2023-03-24T10:31:40.998Z,18.95
2023-03-24T10:34:18.491Z,19.16
2023-03-24T10:36:49.838Z,19.28
2023-03-24T10:39:24.129Z,19.35
2023-03-24T10:41:59.203Z,19.27
2023-03-24T10:44:30.965Z,19.16
2023-03-24T10:47:05.478Z,19.03
2023-03-24T10:49:35.802Z,18.95
2023-03-24T10:52:10.141Z,18.96
2023-03-24T10:54:39.979Z,19.02
2023-03-24T10:57:21.589Z,19.14
2023-03-24T10:59:57.138Z,19.25
2023-03-24T11:02:38.216Z,19.23
2023-03-24T11:05:24.428Z,19.14
2023-03-24T11:07:53.970Z,19.08
2023-03-24T11:10:41.909Z,18.99
2023-03-24T11:13:36.757Z,18.85
2023-03-24T11:16:18.324Z,18.67
2023-03-24T11:19:04.570Z,18.55
2023-03-24T11:21:40.455Z,18.46
2023-03-24T11:24:47.348Z,18.46
2023-03-24T11:27:36.428Z,18.41
2023-03-24T11:30:16.313Z,18.35
2023-03-24T11:32:51.692Z,18.31
2023-03-24T11:35:35.386Z,18.35
2023-03-24T11:38:23.028Z,18.43
2023-03-24T11:41:01.634Z,18.53
2023-03-24T11:43:31.372Z,18.63
2023-03-24T11:46:10.676Z,18.70
2023-03-24T11:48:56.597Z,18.79
2023-03-24T11:51:38.799Z,18.90
2023-03-24T11:54:17.863Z,19.05
2023-03-24T11:56:48.381Z,19.11
2023-03-24T11:59:23.910Z,19.14
2023-03-24T12:02:11.774Z,19.17
2023-03-24T12:11:46.857Z,20.12
2023-03-24T12:14:54.028Z,20.70
2023-03-24T12:17:43.066Z,21.06
2023-03-24T12:20:15.931Z,21.17
2023-03-24T12:23:14.908Z,21.26
2023-03-24T12:26:07.207Z,21.21
2023-03-24T12:28:46.276Z,21.09
2023-03-24T12:31:38.503Z,21.05
2023-03-24T12:34:36.838Z,21.07
2023-03-24T12:37:20.577Z,21.02
2023-03-24T12:40:22.309Z,20.93
2023-03-24T12:43:01.348Z,20.83
2023-03-24T12:45:53.848Z,20.74
2023-03-24T12:48:31.579Z,20.63
2023-03-24T12:51:24.650Z,20.46
2023-03-24T12:54:28.428Z,20.30
2023-03-24T12:57:08.129Z,20.13
2023-03-24T13:00:11.413Z,20.03
2023-03-24T13:02:49.273Z,19.93
2023-03-24T13:05:32.913Z,19.87
2023-03-24T13:08:07.585Z,19.81
2023-03-24T13:10:47.720Z,19.78
2023-03-24T13:13:25.893Z,19.83
2023-03-24T13:16:03.315Z,19.94
2023-03-24T13:18:53.448Z,20.02
2023-03-24T13:21:28.338Z,20.07
2023-03-24T13:24:12.210Z,20.08
2023-03-24T13:27:26.214Z,20.08
2023-03-24T13:30:02.628Z,20.06
2023-03-24T13:32:54.777Z,20.05
2023-03-24T13:35:39.896Z,20.06
2023-03-24T13:38:33.385Z,20.03
2023-03-24T13:41:08.465Z,19.99
2023-03-24T13:43:39.474Z,19.93
2023-03-24T13:46:14.987Z,19.82
2023-03-24T13:49:01.214Z,19.72
2023-03-24T13:51:33.353Z,19.62
2023-03-24T13:54:07.783Z,19.58
2023-03-24T13:56:50.572Z,19.55
2023-03-24T14:00:01.362Z,19.53
2023-03-24T14:02:58.627Z,19.49
2023-03-24T14:06:02.922Z,19.46
2023-03-24T14:08:50.188Z,19.42
2023-03-24T14:12:11.623Z,19.38
2023-03-24T14:15:33.426Z,19.33
2023-03-24T14:18:28.329Z,19.28
2023-03-24T14:24:45.863Z,19.19
2023-03-24T14:27:36.027Z,19.14
2023-03-24T14:30:31.807Z,19.12
2023-03-24T14:33:02.446Z,19.08
2023-03-24T14:35:46.090Z,19.04
2023-03-24T14:38:16.878Z,19.01
2023-03-24T14:40:50.292Z,18.97
2023-03-24T14:43:48.678Z,18.95
2023-03-24T14:46:41.622Z,18.92
2023-03-24T14:49:25.024Z,18.89
2023-03-24T14:52:25.226Z,18.85
2023-03-24T14:55:01.827Z,18.82
2023-03-24T14:57:44.219Z,18.80
2023-03-24T15:00:49.378Z,18.78
2023-03-24T15:03:24.523Z,18.75
2023-03-24T15:05:54.868Z,18.73
2023-03-24T15:08:28.570Z,18.70
2023-03-24T15:11:05.144Z,18.66
2023-03-24T15:13:43.033Z,18.62
2023-03-24T15:16:14.057Z,18.59
2023-03-24T15:19:02.525Z,18.56
2023-03-24T15:21:39.100Z,18.53
2023-03-24T15:24:24.597Z,18.49
2023-03-24T15:26:54.903Z,18.45
2023-03-24T15:29:26.262Z,18.42
2023-03-24T15:31:57.759Z,18.41
2023-03-24T15:34:45.442Z,18.36
2023-03-24T15:37:51.029Z,18.33
2023-03-24T15:40:27.563Z,18.29
2023-03-24T15:43:00.547Z,18.25
2023-03-24T15:46:01.158Z,18.20
2023-03-24T15:48:46.714Z,18.14
2023-03-24T15:51:23.020Z,18.11
2023-03-24T15:54:50.249Z,18.09
2023-03-24T15:57:26.271Z,18.03
2023-03-24T16:00:16.279Z,17.98
2023-03-24T16:03:00.781Z,17.94
2023-03-24T16:05:31.247Z,17.90
2023-03-24T16:08:10.464Z,17.86
2023-03-24T16:10:56.019Z,17.83
2023-03-24T16:13:58.536Z,17.78
2023-03-24T16:16:31.704Z,17.74
2023-03-24T16:19:05.191Z,17.71
2023-03-24T16:21:38.240Z,17.67
2023-03-24T16:24:13.121Z,17.65
2023-03-24T16:26:44.006Z,17.61
2023-03-24T16:29:26.393Z,17.59
2023-03-24T16:32:00.214Z,17.56
2023-03-24T16:34:28.838Z,17.53
2023-03-24T16:37:00.106Z,17.51
2023-03-24T16:39:33.175Z,17.47
2023-03-24T16:42:06.678Z,17.45
2023-03-24T16:44:38.736Z,17.42
2023-03-24T16:47:11.148Z,17.39
2023-03-24T16:49:44.086Z,17.37
2023-03-24T16:52:12.973Z,17.36
2023-03-24T16:54:42.084Z,17.33
2023-03-24T16:57:11.773Z,17.32
2023-03-24T16:59:42.266Z,17.30
2023-03-24T17:02:10.851Z,17.26
2023-03-24T17:04:48.864Z,17.23
2023-03-24T17:07:26.783Z,17.21
2023-03-24T17:09:55.646Z,17.19
2023-03-24T17:12:22.887Z,17.18
2023-03-24T17:14:55.200Z,17.16
2023-03-24T17:17:23.090Z,17.15
2023-03-24T17:19:52.806Z,17.13
2023-03-24T17:22:21.500Z,17.11
2023-03-24T17:24:57.784Z,17.09
2023-03-24T17:27:29.849Z,17.05
2023-03-24T17:30:01.788Z,17.02
2023-03-24T17:32:35.566Z,17.00
2023-03-24T17:35:07.304Z,16.98
2023-03-24T17:37:42.451Z,16.96
2023-03-24T17:40:11.593Z,16.94
2023-03-24T17:42:46.340Z,16.91
2023-03-24T17:45:18.713Z,16.89
2023-03-24T17:47:59.581Z,16.85
2023-03-24T17:50:39.755Z,16.82
2023-03-24T17:53:13.450Z,16.80
2023-03-24T17:55:41.387Z,16.77
2023-03-24T17:58:12.618Z,16.76
2023-03-24T18:00:44.917Z,16.75
2023-03-24T18:03:23.122Z,16.75
2023-03-24T18:05:54.701Z,16.73
2023-03-24T18:08:28.606Z,16.72
2023-03-24T18:11:10.409Z,16.71
2023-03-24T18:13:39.139Z,16.70
2023-03-24T18:16:20.034Z,16.69
2023-03-24T18:18:51.361Z,16.67
2023-03-24T18:21:21.045Z,16.67
2023-03-24T18:23:49.826Z,16.67
2023-03-24T18:26:21.128Z,16.67
2023-03-24T18:28:53.269Z,16.66
2023-03-24T18:31:26.318Z,16.65
2023-03-24T18:34:52.214Z,16.63
2023-03-24T18:38:01.239Z,16.61
2023-03-24T18:40:33.646Z,16.59
2023-03-24T18:43:01.209Z,16.56
2023-03-24T18:45:33.136Z,16.53
2023-03-24T18:48:06.329Z,16.51
2023-03-24T18:50:34.853Z,16.49
2023-03-24T18:53:05.427Z,16.46
2023-03-24T18:55:35.356Z,16.43
2023-03-24T18:58:04.325Z,16.39
2023-03-24T19:00:35.365Z,16.37
2023-03-24T19:03:07.675Z,16.33
2023-03-24T19:05:41.254Z,16.29
2023-03-24T19:08:29.058Z,16.26
2023-03-24T19:11:04.803Z,16.23
2023-03-24T19:13:39.948Z,16.20
2023-03-24T19:16:10.131Z,16.17
2023-03-24T19:18:41.880Z,16.15
2023-03-24T19:21:19.818Z,16.13
2023-03-24T19:23:54.335Z,16.12
2023-03-24T19:26:22.678Z,16.10
2023-03-24T19:28:53.277Z,16.08
2023-03-24T19:31:25.410Z,16.05
2023-03-24T19:33:56.659Z,16.03
2023-03-24T19:36:28.589Z,16.00
2023-03-24T19:39:01.643Z,15.97
2023-03-24T19:41:29.950Z,15.95
2023-03-24T19:43:59.398Z,15.93
2023-03-24T19:46:32.350Z,15.90
2023-03-24T19:48:59.844Z,15.89
2023-03-24T19:51:30.054Z,15.88
2023-03-24T19:53:57.758Z,15.88
2023-03-24T19:56:29.418Z,15.87
2023-03-24T19:59:07.224Z,15.85
2023-03-24T20:01:36.086Z,15.83
2023-03-24T20:04:04.761Z,15.82
2023-03-24T20:06:42.720Z,15.81
2023-03-24T20:09:17.032Z,15.79
2023-03-24T20:11:47.689Z,15.78
2023-03-24T20:14:27.864Z,15.78
2023-03-24T20:17:14.624Z,15.76
2023-03-24T20:19:47.439Z,15.73
2023-03-24T20:22:23.967Z,15.69
2023-03-24T20:31:43.122Z,15.59
2023-03-24T20:34:13.213Z,15.51
2023-03-24T20:36:43.528Z,15.46
2023-03-24T20:39:17.182Z,15.42
2023-03-24T20:41:47.934Z,15.39
2023-03-24T20:44:17.646Z,15.35
2023-03-24T20:46:50.545Z,15.31
2023-03-24T20:56:32.455Z,15.21
2023-03-24T20:59:02.954Z,15.15
2023-03-24T21:01:37.381Z,15.12
2023-03-24T21:04:10.617Z,15.09
2023-03-24T21:06:42.409Z,15.07
2023-03-24T21:09:14.342Z,15.05
2023-03-24T21:11:48.775Z,15.04
2023-03-24T21:14:17.663Z,15.02
2023-03-24T21:17:13.592Z,14.98
2023-03-24T21:19:47.322Z,14.94
2023-03-24T21:22:16.717Z,14.89
2023-03-24T21:24:59.839Z,14.82
2023-03-24T21:27:28.456Z,14.76
2023-03-24T21:30:01.505Z,14.70
2023-03-24T21:32:31.880Z,14.63
2023-03-24T21:35:01.218Z,14.59
2023-03-24T21:37:31.916Z,14.54
2023-03-24T21:40:02.507Z,14.50
2023-03-24T21:42:35.385Z,14.47
2023-03-24T21:45:04.888Z,14.44
2023-03-24T21:47:36.401Z,14.41
2023-03-24T21:50:07.354Z,14.38
2023-03-24T21:52:39.649Z,14.36
2023-03-24T21:55:14.976Z,14.33
2023-03-24T21:57:46.835Z,14.29
2023-03-24T22:00:24.888Z,14.24
2023-03-24T22:02:55.418Z,14.20
2023-03-24T22:05:25.611Z,14.18
2023-03-24T22:07:56.966Z,14.16
2023-03-24T22:10:30.040Z,14.14
2023-03-24T22:12:58.421Z,14.12
2023-03-24T22:15:27.277Z,14.09
